createdAt,value
2022-11-03T00:01:52.264Z,19.00
2022-11-03T00:04:22.818Z,18.00
2022-11-03T00:06:54.471Z,17.25
2022-11-03T00:09:24.522Z,15.00
2022-11-03T00:11:53.217Z,18.50
2022-11-03T00:14:21.768Z,18.25
2022-11-03T00:16:50.624Z,21.00
2022-11-03T00:19:18.975Z,19.00
2022-11-03T00:21:47.799Z,20.00
2022-11-03T00:24:16.123Z,19.50
2022-11-03T00:26:44.487Z,19.50
2022-11-03T00:29:15.161Z,18.50
2022-11-03T00:31:45.543Z,18.50
2022-11-03T00:34:14.024Z,17.00
2022-11-03T00:36:44.461Z,17.00
2022-11-03T00:39:13.982Z,14.25
2022-11-03T00:41:42.713Z,17.00
2022-11-03T00:44:11.921Z,16.50
2022-11-03T00:46:40.417Z,18.50
2022-11-03T00:49:10.283Z,15.75
2022-11-03T00:51:38.662Z,18.00
2022-11-03T00:54:08.295Z,14.75
2022-11-03T00:56:41.950Z,15.75
2022-11-03T00:59:11.280Z,13.50
2022-11-03T01:01:47.711Z,15.00
2022-11-03T01:04:36.719Z,13.00
2022-11-03T01:07:06.959Z,13.25
2022-11-03T01:09:35.222Z,15.50
2022-11-03T01:12:15.032Z,12.00
2022-11-03T01:14:50.822Z,13.75
2022-11-03T01:17:27.144Z,11.00
2022-11-03T01:19:56.858Z,11.50
2022-11-03T01:22:25.950Z,13.00
2022-11-03T01:24:54.270Z,13.00
2022-11-03T01:27:25.773Z,11.50
2022-11-03T01:29:54.076Z,13.25
2022-11-03T01:32:22.381Z,13.50
2022-11-03T01:34:50.806Z,14.50
2022-11-03T01:37:19.128Z,12.75
2022-11-03T01:39:47.423Z,14.75
2022-11-03T01:42:15.807Z,12.25
2022-11-03T01:44:49.522Z,14.75
2022-11-03T01:47:31.063Z,14.00
2022-11-03T01:50:07.519Z,15.00
2022-11-03T01:52:49.773Z,13.50
2022-11-03T01:55:23.864Z,12.50
2022-11-03T01:57:55.746Z,13.50
2022-11-03T02:00:24.109Z,11.00
2022-11-03T02:02:52.794Z,11.75
2022-11-03T02:05:24.437Z,13.75
2022-11-03T02:08:15.670Z,11.25
2022-11-03T02:10:44.293Z,10.75
2022-11-03T02:13:19.994Z,10.50
2022-11-03T02:15:54.772Z,10.50
2022-11-03T02:18:28.556Z,10.00
2022-11-03T02:21:26.163Z,9.75
2022-11-03T02:24:03.461Z,11.00
2022-11-03T02:26:32.458Z,10.00
2022-11-03T02:29:00.831Z,11.00
2022-11-03T02:31:52.001Z,11.25
2022-11-03T02:34:40.050Z,11.00
2022-11-03T02:37:22.546Z,11.50
2022-11-03T02:40:02.401Z,12.00
2022-11-03T02:42:32.465Z,9.00
2022-11-03T02:45:04.836Z,10.50
2022-11-03T02:47:34.731Z,10.25
2022-11-03T02:50:09.392Z,8.50
2022-11-03T02:52:47.186Z,10.25
2022-11-03T02:55:36.819Z,9.00
2022-11-03T02:58:19.610Z,8.00
2022-11-03T03:01:05.580Z,8.25
2022-11-03T03:03:50.274Z,8.00
2022-11-03T03:06:31.259Z,8.75
2022-11-03T03:09:06.120Z,8.25
2022-11-03T03:11:40.362Z,9.25
2022-11-03T03:14:21.995Z,8.25
2022-11-03T03:17:00.335Z,7.75
2022-11-03T03:19:39.129Z,7.50
2022-11-03T03:22:20.062Z,7.00
2022-11-03T03:25:11.393Z,6.50
2022-11-03T03:27:45.536Z,8.50
2022-11-03T03:30:14.519Z,6.00
2022-11-03T03:32:48.001Z,6.50
2022-11-03T03:35:24.389Z,6.00
2022-11-03T03:37:58.202Z,5.25
2022-11-03T03:40:32.052Z,6.00
2022-11-03T03:43:02.587Z,6.75
2022-11-03T03:45:32.790Z,7.00
2022-11-03T03:48:01.663Z,5.00
2022-11-03T03:50:34.214Z,6.75
2022-11-03T03:53:05.925Z,7.00
2022-11-03T03:55:40.523Z,5.00
2022-11-03T03:58:11.061Z,5.25
2022-11-03T04:00:41.114Z,5.00
2022-11-03T04:03:21.902Z,4.00
2022-11-03T04:05:50.724Z,2.75
2022-11-03T04:08:19.509Z,5.50
2022-11-03T04:11:06.678Z,4.00
2022-11-03T04:13:53.607Z,3.25
2022-11-03T04:16:40.314Z,3.00
2022-11-03T04:19:30.975Z,5.00
2022-11-03T04:22:17.729Z,3.25
2022-11-03T04:24:48.502Z,4.50
2022-11-03T04:27:28.790Z,5.00
2022-11-03T04:30:10.918Z,3.00
2022-11-03T04:32:39.392Z,5.50
2022-11-03T04:35:17.612Z,4.25
2022-11-03T04:37:52.151Z,3.50
2022-11-03T04:40:20.715Z,4.25
2022-11-03T04:42:49.453Z,3.00
2022-11-03T04:45:39.282Z,3.00
2022-11-03T04:48:35.071Z,3.50
2022-11-03T04:51:12.463Z,3.00
2022-11-03T04:54:04.602Z,4.00
2022-11-03T04:56:33.057Z,3.75
2022-11-03T04:59:01.410Z,4.75
2022-11-03T05:01:31.207Z,3.00
2022-11-03T05:03:59.739Z,4.25
2022-11-03T05:06:31.480Z,4.25
2022-11-03T05:09:22.515Z,4.00
2022-11-03T05:11:51.126Z,4.50
2022-11-03T05:14:31.710Z,3.75
2022-11-03T05:17:02.983Z,4.75
2022-11-03T05:19:44.055Z,3.00
2022-11-03T05:22:22.084Z,4.00
2022-11-03T05:24:57.903Z,3.00
2022-11-03T05:27:26.749Z,4.00
2022-11-03T05:30:00.815Z,3.00
2022-11-03T05:32:35.509Z,2.75
2022-11-03T05:35:05.121Z,4.50
2022-11-03T05:37:35.597Z,3.00
2022-11-03T05:40:06.348Z,4.50
2022-11-03T05:42:39.010Z,4.00
2022-11-03T05:45:34.618Z,5.00
2022-11-03T05:48:05.521Z,4.50
2022-11-03T05:50:37.515Z,5.00
2022-11-03T05:53:16.594Z,4.00
2022-11-03T05:55:45.478Z,5.25
2022-11-03T05:58:25.485Z,4.75
2022-11-03T06:00:55.814Z,3.75
2022-11-03T06:03:30.708Z,4.75
2022-11-03T06:06:01.402Z,3.00
2022-11-03T06:08:38.994Z,3.50
2022-11-03T06:11:17.391Z,5.25
2022-11-03T06:13:45.755Z,5.00
2022-11-03T06:16:14.068Z,3.50
2022-11-03T06:18:42.402Z,5.00
2022-11-03T06:21:20.590Z,3.25
2022-11-03T06:23:49.565Z,3.00
2022-11-03T06:26:25.499Z,3.50
2022-11-03T06:28:54.258Z,3.75
2022-11-03T06:31:25.211Z,4.00
2022-11-03T06:33:54.237Z,4.75
2022-11-03T06:36:26.159Z,5.25
2022-11-03T06:39:21.156Z,5.00
2022-11-03T06:41:49.572Z,6.00
2022-11-03T06:44:25.868Z,4.00
2022-11-03T06:47:08.241Z,4.00
2022-11-03T06:49:37.382Z,5.50
2022-11-03T06:52:44.599Z,6.00
2022-11-03T06:55:15.788Z,5.75
2022-11-03T06:57:49.298Z,4.50
2022-11-03T07:00:40.184Z,4.75
2022-11-03T07:03:32.305Z,5.00
2022-11-03T07:06:22.477Z,5.50
2022-11-03T07:08:54.949Z,4.25
2022-11-03T07:11:26.205Z,5.00
2022-11-03T07:13:58.854Z,4.25
2022-11-03T07:16:34.675Z,5.50
2022-11-03T07:19:07.325Z,4.00
2022-11-03T07:21:38.398Z,4.00
2022-11-03T07:24:17.397Z,4.50
2022-11-03T07:26:45.975Z,5.00
2022-11-03T07:29:23.253Z,5.00
2022-11-03T07:31:55.214Z,4.25
2022-11-03T07:34:33.002Z,5.50
2022-11-03T07:37:02.159Z,4.25
2022-11-03T07:39:37.365Z,5.00
2022-11-03T07:42:19.123Z,4.50
2022-11-03T07:44:48.759Z,5.25
2022-11-03T07:47:27.074Z,4.00
2022-11-03T07:49:58.629Z,5.00
2022-11-03T07:52:28.601Z,3.00
2022-11-03T07:55:00.757Z,4.75
2022-11-03T07:57:33.354Z,5.00
2022-11-03T08:00:23.629Z,6.00
2022-11-03T08:03:03.795Z,3.75
2022-11-03T08:05:32.185Z,4.00
2022-11-03T08:08:00.536Z,5.25
2022-11-03T08:10:36.179Z,4.00
2022-11-03T08:13:05.038Z,5.00
2022-11-03T08:15:33.614Z,6.75
2022-11-03T08:18:01.966Z,6.00
2022-11-03T08:20:30.270Z,4.50
2022-11-03T08:23:24.189Z,5.00
2022-11-03T08:25:47.727Z,5.00
2022-11-03T08:28:16.568Z,4.50
2022-11-03T08:30:44.885Z,3.75
2022-11-03T08:33:13.249Z,5.00
2022-11-03T08:35:41.724Z,7.00
2022-11-03T08:38:10.371Z,4.25
2022-11-03T08:40:38.841Z,4.00
2022-11-03T08:43:07.715Z,5.00
2022-11-03T08:45:36.088Z,3.50
2022-11-03T08:48:04.980Z,4.75
2022-11-03T08:50:33.678Z,5.25
2022-11-03T08:53:02.432Z,5.00
2022-11-03T08:55:40.582Z,5.50
2022-11-03T08:58:09.130Z,6.75
2022-11-03T09:00:40.964Z,5.50
2022-11-03T09:03:09.924Z,4.50
2022-11-03T09:05:38.364Z,4.50
2022-11-03T09:10:56.562Z,4.25
2022-11-03T09:13:25.174Z,5.00
2022-11-03T09:15:53.849Z,5.00
2022-11-03T09:18:23.138Z,5.00
2022-11-03T09:20:51.455Z,6.00
2022-11-03T09:23:19.810Z,4.00
2022-11-03T09:25:48.238Z,4.00
2022-11-03T09:28:16.576Z,3.75
2022-11-03T09:30:44.953Z,5.75
2022-11-03T09:33:13.299Z,4.50
2022-11-03T09:35:41.661Z,4.25
2022-11-03T09:38:10.233Z,5.75
2022-11-03T09:40:39.109Z,4.50
2022-11-03T09:43:07.880Z,4.00
2022-11-03T09:45:36.495Z,4.50
2022-11-03T09:48:05.105Z,3.75
2022-11-03T09:50:34.175Z,4.00
2022-11-03T09:53:02.517Z,5.25
2022-11-03T09:55:30.895Z,4.25
2022-11-03T09:58:02.338Z,5.25
2022-11-03T10:00:30.800Z,3.00
2022-11-03T10:02:59.202Z,4.25
2022-11-03T10:05:29.607Z,6.00
2022-11-03T10:08:05.167Z,6.75
2022-11-03T10:10:35.120Z,4.00
2022-11-03T10:13:05.460Z,5.00
2022-11-03T10:15:34.535Z,3.75
2022-11-03T10:18:03.107Z,5.25
2022-11-03T10:20:31.528Z,4.00
2022-11-03T10:22:59.920Z,4.50
2022-11-03T10:25:38.932Z,6.75
2022-11-03T10:28:22.311Z,4.50
2022-11-03T10:31:16.556Z,6.00
2022-11-03T10:33:56.500Z,5.25
2022-11-03T10:36:27.676Z,4.50
2022-11-03T10:38:56.843Z,5.25
2022-11-03T10:41:30.899Z,3.75
2022-11-03T10:44:06.721Z,5.75
2022-11-03T10:46:51.551Z,5.75
2022-11-03T10:49:21.593Z,5.00
2022-11-03T10:51:55.289Z,4.75
2022-11-03T10:54:25.562Z,6.25
2022-11-03T10:56:54.287Z,5.25
2022-11-03T10:59:32.403Z,6.50
2022-11-03T11:02:02.270Z,7.50
2022-11-03T11:04:33.610Z,7.25
2022-11-03T11:07:02.024Z,7.25
2022-11-03T11:09:30.728Z,9.00
2022-11-03T11:12:06.695Z,9.25
2022-11-03T11:14:40.689Z,10.50
2022-11-03T11:17:40.518Z,9.25
2022-11-03T11:20:22.328Z,9.25
2022-11-03T11:22:51.968Z,8.00
2022-11-03T11:25:20.715Z,7.50
2022-11-03T11:27:58.580Z,6.75
2022-11-03T11:30:36.668Z,7.00
2022-11-03T11:33:23.984Z,7.00
2022-11-03T11:35:56.544Z,8.75
2022-11-03T11:38:56.613Z,9.00
2022-11-03T11:42:03.678Z,11.25
2022-11-03T11:44:41.387Z,9.75
2022-11-03T11:47:46.603Z,9.75
2022-11-03T11:50:26.822Z,9.75
2022-11-03T11:53:10.909Z,13.00
2022-11-03T11:55:50.067Z,11.00
2022-11-03T11:58:46.046Z,10.25
2022-11-03T12:01:31.757Z,11.25
2022-11-03T12:04:07.078Z,10.25
2022-11-03T12:09:14.313Z,13.50
2022-11-03T12:12:04.897Z,10.75
2022-11-03T12:14:40.057Z,14.00
2022-11-03T12:17:20.203Z,12.25
2022-11-03T12:19:51.998Z,12.25
2022-11-03T12:22:29.117Z,12.75
2022-11-03T12:24:57.440Z,13.25
2022-11-03T12:27:25.825Z,14.00
2022-11-03T12:29:56.106Z,15.25
2022-11-03T12:32:33.792Z,16.75
2022-11-03T12:35:09.288Z,14.50
2022-11-03T12:37:38.378Z,15.50
2022-11-03T12:40:07.697Z,14.25
2022-11-03T12:42:36.239Z,13.25
2022-11-03T12:45:05.190Z,15.25
2022-11-03T12:47:33.549Z,14.25
2022-11-03T12:50:01.879Z,14.00
2022-11-03T12:52:30.237Z,13.00
2022-11-03T12:54:58.619Z,15.75
2022-11-03T12:57:27.033Z,13.25
2022-11-03T12:59:55.541Z,12.00
2022-11-03T13:02:24.060Z,13.75
2022-11-03T13:04:52.542Z,12.00
2022-11-03T13:07:26.783Z,13.00
2022-11-03T13:09:57.527Z,12.25
2022-11-03T13:12:36.151Z,13.00
2022-11-03T13:15:07.930Z,14.50
2022-11-03T13:17:59.336Z,16.00
2022-11-03T13:20:24.721Z,17.00
2022-11-03T13:22:53.361Z,14.50
2022-11-03T13:25:21.860Z,17.50
2022-11-03T13:27:54.794Z,18.50
2022-11-03T13:30:24.499Z,18.25
2022-11-03T13:32:53.407Z,14.75
2022-11-03T13:35:21.816Z,15.75
2022-11-03T13:37:50.801Z,14.75
2022-11-03T13:40:50.447Z,17.50
2022-11-03T13:43:08.083Z,18.00
2022-11-03T13:45:36.663Z,18.50
2022-11-03T13:50:54.581Z,18.25
2022-11-03T13:56:16.943Z,19.50
2022-11-03T14:01:38.958Z,17.75
2022-11-03T14:06:56.446Z,21.00
2022-11-03T14:09:25.435Z,21.00
2022-11-03T14:12:12.284Z,21.00
2022-11-03T14:14:40.598Z,21.25
2022-11-03T14:17:09.181Z,20.25
2022-11-03T14:19:43.775Z,19.25
2022-11-03T14:22:13.360Z,20.75
2022-11-03T14:24:42.165Z,19.25
2022-11-03T14:27:11.135Z,20.50
2022-11-03T14:29:39.696Z,21.25
2022-11-03T14:32:08.051Z,21.25
2022-11-03T14:34:36.571Z,20.50
2022-11-03T14:37:05.609Z,21.50
2022-11-03T14:39:34.033Z,21.25
2022-11-03T14:42:05.253Z,20.75
2022-11-03T14:44:37.439Z,20.75
2022-11-03T14:47:08.362Z,21.00
2022-11-03T14:49:37.316Z,19.00
2022-11-03T14:52:08.179Z,19.75
2022-11-03T14:54:37.421Z,19.50
2022-11-03T14:57:06.339Z,20.75
2022-11-03T14:59:35.738Z,19.50
2022-11-03T15:02:04.937Z,19.00
2022-11-03T15:04:33.519Z,19.00
2022-11-03T15:07:02.492Z,20.25
2022-11-03T15:09:30.864Z,21.00
2022-11-03T15:11:59.178Z,21.00
2022-11-03T15:14:27.514Z,21.00
2022-11-03T15:16:55.886Z,19.75
2022-11-03T15:19:24.329Z,21.00
2022-11-03T15:21:52.645Z,22.00
2022-11-03T15:27:09.272Z,19.75
2022-11-03T15:29:38.517Z,21.00
2022-11-03T15:32:07.791Z,22.00
2022-11-03T15:34:36.103Z,20.25
2022-11-03T15:37:04.440Z,19.75
2022-11-03T15:39:34.069Z,21.00
2022-11-03T15:42:02.590Z,21.00
2022-11-03T15:44:31.089Z,21.25
2022-11-03T15:46:59.412Z,19.25
2022-11-03T15:49:27.767Z,21.00
2022-11-03T15:51:56.060Z,21.00
2022-11-03T15:54:24.436Z,21.00
2022-11-03T15:56:52.759Z,22.75
2022-11-03T15:59:21.093Z,22.00
2022-11-03T16:01:49.501Z,22.75
2022-11-03T16:04:17.891Z,22.00
2022-11-03T16:07:06.876Z,20.00
2022-11-03T16:09:34.689Z,21.00
2022-11-03T16:12:03.160Z,20.50
2022-11-03T16:14:31.986Z,19.00
2022-11-03T16:17:00.619Z,20.25
2022-11-03T16:19:28.965Z,20.00
2022-11-03T16:21:57.301Z,19.00
2022-11-03T16:24:33.327Z,18.75
2022-11-03T16:27:04.044Z,18.50
2022-11-03T16:29:32.378Z,18.75
2022-11-03T16:32:00.652Z,19.00
2022-11-03T16:34:29.409Z,19.00
2022-11-03T16:36:57.853Z,18.25
2022-11-03T16:39:26.251Z,19.00
2022-11-03T16:41:55.904Z,20.25
2022-11-03T16:44:24.299Z,19.50
2022-11-03T16:46:52.674Z,19.00
2022-11-03T16:49:21.089Z,21.75
2022-11-03T16:51:49.450Z,21.00
2022-11-03T16:54:18.084Z,19.00
2022-11-03T16:56:50.567Z,21.25
2022-11-03T16:59:24.529Z,18.75
2022-11-03T17:01:52.969Z,19.50
2022-11-03T17:04:21.416Z,19.00
2022-11-03T17:06:49.760Z,19.00
2022-11-03T17:09:18.143Z,20.00
2022-11-03T17:11:46.428Z,20.75
2022-11-03T17:14:14.802Z,19.75
2022-11-03T17:16:47.644Z,19.25
2022-11-03T17:19:16.892Z,19.00
2022-11-03T17:21:45.211Z,19.25
2022-11-03T17:24:14.207Z,19.00
2022-11-03T17:27:00.372Z,18.25
2022-11-03T17:29:51.542Z,18.75
2022-11-03T17:32:44.276Z,18.00
2022-11-03T17:35:18.356Z,19.00
2022-11-03T17:37:46.960Z,20.25
2022-11-03T17:40:21.393Z,19.00
2022-11-03T17:42:50.565Z,18.25
2022-11-03T17:45:21.715Z,20.00
2022-11-03T17:47:50.795Z,19.00
2022-11-03T17:50:22.310Z,17.25
2022-11-03T17:52:52.219Z,18.00
2022-11-03T17:55:32.715Z,17.25
2022-11-03T17:58:04.961Z,17.75
2022-11-03T18:00:33.423Z,20.00
2022-11-03T18:03:01.821Z,20.25
2022-11-03T18:05:32.296Z,20.75
2022-11-03T18:08:03.108Z,19.00
2022-11-03T18:10:39.260Z,21.50
2022-11-03T18:13:17.477Z,19.25
2022-11-03T18:15:52.128Z,18.00
2022-11-03T18:18:42.993Z,18.00
2022-11-03T18:21:23.448Z,18.75
2022-11-03T18:23:51.905Z,18.00
2022-11-03T18:26:26.544Z,18.50
2022-11-03T18:28:55.317Z,18.25
2022-11-03T18:31:45.180Z,17.00
2022-11-03T18:34:23.657Z,17.50
2022-11-03T18:36:53.564Z,17.00
2022-11-03T18:39:26.447Z,19.00
2022-11-03T18:41:55.117Z,17.50
2022-11-03T18:44:25.153Z,19.25
2022-11-03T18:46:55.502Z,21.00
2022-11-03T18:49:24.997Z,20.50
2022-11-03T18:52:02.466Z,19.00
2022-11-03T18:54:32.435Z,19.00
2022-11-03T18:57:01.504Z,21.00
2022-11-03T18:59:40.075Z,19.75
2022-11-03T19:02:21.428Z,19.00
2022-11-03T19:04:50.402Z,18.50
2022-11-03T19:07:30.525Z,19.00
2022-11-03T19:09:59.145Z,19.00
2022-11-03T19:12:27.522Z,20.00
2022-11-03T19:14:55.970Z,18.00
2022-11-03T19:17:26.357Z,19.00
2022-11-03T19:19:55.222Z,19.00
2022-11-03T19:22:24.971Z,16.75
2022-11-03T19:24:53.486Z,19.00
2022-11-03T19:27:29.838Z,16.50
2022-11-03T19:30:00.819Z,18.25
2022-11-03T19:32:41.372Z,19.50
2022-11-03T19:35:19.049Z,18.75
2022-11-03T19:37:53.327Z,19.00
2022-11-03T19:40:22.062Z,16.25
2022-11-03T19:42:50.415Z,19.00
2022-11-03T19:45:21.548Z,20.50
2022-11-03T19:50:49.609Z,19.00
2022-11-03T19:53:30.252Z,19.25
2022-11-03T19:55:59.401Z,18.75
2022-11-03T19:58:30.104Z,19.00
2022-11-03T20:00:59.441Z,17.75
2022-11-03T20:03:30.042Z,18.75
2022-11-03T20:05:59.286Z,18.50
2022-11-03T20:08:30.626Z,20.00
2022-11-03T20:10:59.370Z,19.50
2022-11-03T20:13:31.694Z,19.25
2022-11-03T20:16:01.315Z,18.00
2022-11-03T20:18:30.268Z,18.00
2022-11-03T20:20:59.654Z,19.00
2022-11-03T20:23:31.572Z,19.00
2022-11-03T20:26:01.675Z,19.00
2022-11-03T20:28:33.162Z,16.00
2022-11-03T20:31:04.762Z,19.00
2022-11-03T20:33:33.207Z,18.25
2022-11-03T20:36:02.981Z,17.00
2022-11-03T20:38:32.388Z,18.00
2022-11-03T20:41:07.615Z,18.00
2022-11-03T20:43:44.941Z,16.00
2022-11-03T20:46:33.704Z,19.00
2022-11-03T20:49:02.126Z,19.00
2022-11-03T20:51:35.985Z,19.50
2022-11-03T20:54:05.487Z,18.50
2022-11-03T20:56:33.829Z,16.75
2022-11-03T20:59:02.354Z,19.00
2022-11-03T21:01:35.109Z,18.00
2022-11-03T21:04:04.727Z,18.75
2022-11-03T21:06:34.193Z,16.25
2022-11-03T21:09:02.886Z,19.00
2022-11-03T21:11:40.683Z,16.25
2022-11-03T21:14:30.733Z,16.75
2022-11-03T21:17:17.343Z,19.00
2022-11-03T21:20:02.871Z,17.75
2022-11-03T21:22:51.857Z,18.75
2022-11-03T21:25:23.709Z,18.75
2022-11-03T21:27:52.807Z,15.50
2022-11-03T21:30:21.262Z,20.00
2022-11-03T21:32:49.645Z,15.50
2022-11-03T21:35:22.021Z,17.75
2022-11-03T21:37:50.843Z,17.00
2022-11-03T21:40:19.299Z,17.25
2022-11-03T21:43:05.731Z,13.75
2022-11-03T21:45:34.406Z,15.50
2022-11-03T21:48:21.605Z,14.00
2022-11-03T21:50:50.651Z,12.25
2022-11-03T21:53:19.127Z,14.00
2022-11-03T21:55:50.737Z,14.75
2022-11-03T21:58:19.100Z,14.00
2022-11-03T22:00:48.102Z,13.50
2022-11-03T22:03:16.739Z,14.00
2022-11-03T22:05:45.186Z,14.75
2022-11-03T22:08:13.793Z,14.25
2022-11-03T22:10:42.343Z,12.50
2022-11-03T22:13:10.964Z,14.25
2022-11-03T22:15:57.793Z,14.75
2022-11-03T22:18:26.469Z,13.75
2022-11-03T22:21:12.898Z,15.50
2022-11-03T22:23:59.456Z,13.75
2022-11-03T22:26:45.950Z,15.50
2022-11-03T22:29:32.893Z,13.00
2022-11-03T22:32:01.206Z,15.00
2022-11-03T22:34:47.821Z,14.75
2022-11-03T22:37:16.155Z,12.00
2022-11-03T22:40:02.720Z,13.00
2022-11-03T22:42:49.342Z,12.25
2022-11-03T22:45:35.990Z,12.75
2022-11-03T22:48:05.673Z,12.75
2022-11-03T22:50:34.326Z,13.75
2022-11-03T22:53:22.488Z,12.25
2022-11-03T22:55:50.847Z,12.25
2022-11-03T22:58:19.748Z,12.50
2022-11-03T23:00:48.476Z,15.50
2022-11-03T23:03:16.837Z,13.75
2022-11-03T23:05:45.180Z,12.75
2022-11-03T23:08:13.484Z,13.00
2022-11-03T23:10:41.859Z,12.00
2022-11-03T23:13:10.366Z,13.50
2022-11-03T23:15:44.532Z,13.00
2022-11-03T23:18:31.152Z,16.50
2022-11-03T23:21:08.467Z,14.00
2022-11-03T23:23:57.165Z,14.00
2022-11-03T23:26:28.026Z,15.00
2022-11-03T23:28:56.508Z,14.00
2022-11-03T23:31:24.823Z,15.25
2022-11-03T23:33:53.548Z,14.50
2022-11-03T23:36:22.239Z,14.50
2022-11-03T23:38:50.566Z,15.25
2022-11-03T23:41:20.457Z,16.25
2022-11-03T23:43:48.863Z,15.50
2022-11-03T23:46:41.052Z,14.75
2022-11-03T23:49:09.805Z,15.00
2022-11-03T23:51:40.400Z,17.00
2022-11-03T23:54:10.644Z,16.00
2022-11-03T23:57:02.448Z,16.00
2022-11-03T23:59:32.510Z,17.25
